sensor_id;sensor_type;location;lat;lon;timestamp;P1;durP1;ratioP1;P2;durP2;ratioP2
21636;SDS011;10980;49.596;6.142;2022-08-19T00:00:13;11.38;;;8.30;;
21636;SDS011;10980;49.596;6.142;2022-08-19T00:03:37;9.75;;;8.13;;
21636;SDS011;10980;49.596;6.142;2022-08-19T00:06:58;11.48;;;8.70;;
21636;SDS011;10980;49.596;6.142;2022-08-19T00:10:20;11.75;;;8.63;;
21636;SDS011;10980;49.596;6.142;2022-08-19T00:13:42;14.90;;;8.93;;
21636;SDS011;10980;49.596;6.142;2022-08-19T00:17:05;11.52;;;9.10;;
21636;SDS011;10980;49.596;6.142;2022-08-19T00:20:27;15.48;;;9.18;;
21636;SDS011;10980;49.596;6.142;2022-08-19T00:23:49;12.32;;;8.85;;
21636;SDS011;10980;49.596;6.142;2022-08-19T00:27:11;13.00;;;8.88;;
21636;SDS011;10980;49.596;6.142;2022-08-19T00:30:47;12.00;;;9.10;;
21636;SDS011;10980;49.596;6.142;2022-08-19T00:34:09;12.98;;;8.98;;
21636;SDS011;10980;49.596;6.142;2022-08-19T00:37:32;15.70;;;9.55;;
21636;SDS011;10980;49.596;6.142;2022-08-19T00:40:56;13.50;;;9.73;;
21636;SDS011;10980;49.596;6.142;2022-08-19T00:44:27;13.63;;;9.27;;
21636;SDS011;10980;49.596;6.142;2022-08-19T00:47:50;14.43;;;10.18;;
21636;SDS011;10980;49.596;6.142;2022-08-19T00:51:12;17.70;;;9.68;;
21636;SDS011;10980;49.596;6.142;2022-08-19T00:54:35;12.82;;;9.70;;
21636;SDS011;10980;49.596;6.142;2022-08-19T00:58:00;14.73;;;9.68;;
21636;SDS011;10980;49.596;6.142;2022-08-19T01:01:25;14.80;;;10.18;;
21636;SDS011;10980;49.596;6.142;2022-08-19T01:04:47;14.13;;;9.50;;
21636;SDS011;10980;49.596;6.142;2022-08-19T01:08:09;13.75;;;9.40;;
21636;SDS011;10980;49.596;6.142;2022-08-19T01:11:33;12.75;;;9.40;;
21636;SDS011;10980;49.596;6.142;2022-08-19T01:14:57;14.70;;;9.85;;
21636;SDS011;10980;49.596;6.142;2022-08-19T01:18:21;13.52;;;10.48;;
21636;SDS011;10980;49.596;6.142;2022-08-19T01:21:46;14.00;;;10.02;;
21636;SDS011;10980;49.596;6.142;2022-08-19T01:25:18;11.98;;;9.43;;
21636;SDS011;10980;49.596;6.142;2022-08-19T01:28:42;14.65;;;9.43;;
21636;SDS011;10980;49.596;6.142;2022-08-19T01:32:05;15.27;;;10.35;;
21636;SDS011;10980;49.596;6.142;2022-08-19T01:35:48;15.15;;;10.60;;
21636;SDS011;10980;49.596;6.142;2022-08-19T01:39:14;16.55;;;10.40;;
21636;SDS011;10980;49.596;6.142;2022-08-19T01:42:40;14.10;;;10.55;;
21636;SDS011;10980;49.596;6.142;2022-08-19T01:46:02;15.32;;;10.75;;
21636;SDS011;10980;49.596;6.142;2022-08-19T01:49:25;15.02;;;10.70;;
21636;SDS011;10980;49.596;6.142;2022-08-19T01:52:47;16.10;;;11.13;;
21636;SDS011;10980;49.596;6.142;2022-08-19T01:56:22;18.17;;;11.60;;
21636;SDS011;10980;49.596;6.142;2022-08-19T01:59:44;15.68;;;11.52;;
21636;SDS011;10980;49.596;6.142;2022-08-19T02:03:07;15.02;;;11.02;;
21636;SDS011;10980;49.596;6.142;2022-08-19T02:06:30;17.67;;;11.70;;
21636;SDS011;10980;49.596;6.142;2022-08-19T02:09:52;19.23;;;11.75;;
21636;SDS011;10980;49.596;6.142;2022-08-19T02:13:14;15.07;;;11.50;;
21636;SDS011;10980;49.596;6.142;2022-08-19T02:16:41;16.85;;;11.68;;
21636;SDS011;10980;49.596;6.142;2022-08-19T02:20:03;16.92;;;10.75;;
21636;SDS011;10980;49.596;6.142;2022-08-19T02:23:27;19.02;;;11.25;;
21636;SDS011;10980;49.596;6.142;2022-08-19T02:26:49;18.05;;;11.65;;
21636;SDS011;10980;49.596;6.142;2022-08-19T02:30:12;20.45;;;11.27;;
21636;SDS011;10980;49.596;6.142;2022-08-19T02:33:37;14.18;;;10.82;;
21636;SDS011;10980;49.596;6.142;2022-08-19T02:36:59;16.27;;;11.23;;
21636;SDS011;10980;49.596;6.142;2022-08-19T02:40:24;15.27;;;11.70;;
21636;SDS011;10980;49.596;6.142;2022-08-19T02:43:45;16.40;;;11.02;;
21636;SDS011;10980;49.596;6.142;2022-08-19T02:47:27;14.15;;;11.27;;
21636;SDS011;10980;49.596;6.142;2022-08-19T02:50:50;16.67;;;11.60;;
21636;SDS011;10980;49.596;6.142;2022-08-19T02:54:16;17.42;;;12.18;;
21636;SDS011;10980;49.596;6.142;2022-08-19T02:57:38;14.38;;;11.15;;
21636;SDS011;10980;49.596;6.142;2022-08-19T03:00:59;18.65;;;12.60;;
21636;SDS011;10980;49.596;6.142;2022-08-19T03:04:21;18.65;;;11.93;;
21636;SDS011;10980;49.596;6.142;2022-08-19T03:07:44;18.90;;;11.82;;
21636;SDS011;10980;49.596;6.142;2022-08-19T03:11:12;14.23;;;10.82;;
21636;SDS011;10980;49.596;6.142;2022-08-19T03:14:39;16.08;;;10.80;;
21636;SDS011;10980;49.596;6.142;2022-08-19T03:18:01;17.52;;;10.68;;
21636;SDS011;10980;49.596;6.142;2022-08-19T03:21:24;16.15;;;12.13;;
21636;SDS011;10980;49.596;6.142;2022-08-19T03:24:46;17.10;;;12.20;;
21636;SDS011;10980;49.596;6.142;2022-08-19T03:28:09;19.75;;;12.65;;
21636;SDS011;10980;49.596;6.142;2022-08-19T03:31:33;17.02;;;11.57;;
21636;SDS011;10980;49.596;6.142;2022-08-19T03:35:11;19.05;;;12.32;;
21636;SDS011;10980;49.596;6.142;2022-08-19T03:38:33;19.85;;;12.90;;
21636;SDS011;10980;49.596;6.142;2022-08-19T03:41:56;19.98;;;12.80;;
21636;SDS011;10980;49.596;6.142;2022-08-19T03:45:40;20.65;;;13.38;;
21636;SDS011;10980;49.596;6.142;2022-08-19T03:49:03;20.20;;;12.00;;
21636;SDS011;10980;49.596;6.142;2022-08-19T03:52:28;17.25;;;10.70;;
21636;SDS011;10980;49.596;6.142;2022-08-19T03:55:50;15.13;;;10.55;;
21636;SDS011;10980;49.596;6.142;2022-08-19T03:59:13;14.57;;;10.70;;
21636;SDS011;10980;49.596;6.142;2022-08-19T04:02:37;16.25;;;11.40;;
21636;SDS011;10980;49.596;6.142;2022-08-19T04:05:59;19.52;;;12.98;;
21636;SDS011;10980;49.596;6.142;2022-08-19T04:09:43;25.08;;;14.15;;
21636;SDS011;10980;49.596;6.142;2022-08-19T04:13:05;19.50;;;13.73;;
21636;SDS011;10980;49.596;6.142;2022-08-19T04:16:28;22.63;;;12.65;;
21636;SDS011;10980;49.596;6.142;2022-08-19T04:19:55;19.67;;;12.63;;
21636;SDS011;10980;49.596;6.142;2022-08-19T04:23:17;26.67;;;12.07;;
21636;SDS011;10980;49.596;6.142;2022-08-19T04:26:39;25.08;;;12.60;;
21636;SDS011;10980;49.596;6.142;2022-08-19T04:30:03;24.08;;;10.73;;
21636;SDS011;10980;49.596;6.142;2022-08-19T04:33:25;15.32;;;10.57;;
21636;SDS011;10980;49.596;6.142;2022-08-19T04:36:49;20.80;;;13.80;;
21636;SDS011;10980;49.596;6.142;2022-08-19T04:40:12;19.48;;;12.35;;
21636;SDS011;10980;49.596;6.142;2022-08-19T04:43:52;17.67;;;11.98;;
21636;SDS011;10980;49.596;6.142;2022-08-19T04:47:14;18.55;;;13.07;;
21636;SDS011;10980;49.596;6.142;2022-08-19T04:50:56;15.95;;;11.52;;
21636;SDS011;10980;49.596;6.142;2022-08-19T04:54:19;19.75;;;11.95;;
21636;SDS011;10980;49.596;6.142;2022-08-19T04:57:59;15.50;;;11.15;;
21636;SDS011;10980;49.596;6.142;2022-08-19T05:01:22;19.33;;;11.35;;
21636;SDS011;10980;49.596;6.142;2022-08-19T05:04:47;15.95;;;11.63;;
21636;SDS011;10980;49.596;6.142;2022-08-19T05:08:10;18.27;;;12.88;;
21636;SDS011;10980;49.596;6.142;2022-08-19T05:11:36;17.10;;;12.20;;
21636;SDS011;10980;49.596;6.142;2022-08-19T05:15:02;16.75;;;12.02;;
21636;SDS011;10980;49.596;6.142;2022-08-19T05:18:25;16.80;;;11.77;;
21636;SDS011;10980;49.596;6.142;2022-08-19T05:22:06;17.38;;;12.27;;
21636;SDS011;10980;49.596;6.142;2022-08-19T05:25:46;15.75;;;10.75;;
21636;SDS011;10980;49.596;6.142;2022-08-19T05:29:08;16.20;;;10.98;;
21636;SDS011;10980;49.596;6.142;2022-08-19T05:32:32;17.70;;;11.20;;
21636;SDS011;10980;49.596;6.142;2022-08-19T05:35:54;18.83;;;12.70;;
21636;SDS011;10980;49.596;6.142;2022-08-19T05:39:18;25.20;;;15.15;;
21636;SDS011;10980;49.596;6.142;2022-08-19T05:42:41;19.52;;;13.05;;
21636;SDS011;10980;49.596;6.142;2022-08-19T05:46:06;18.02;;;12.32;;
21636;SDS011;10980;49.596;6.142;2022-08-19T05:49:30;24.70;;;13.18;;
21636;SDS011;10980;49.596;6.142;2022-08-19T05:52:53;20.20;;;13.55;;
21636;SDS011;10980;49.596;6.142;2022-08-19T05:56:15;20.77;;;14.07;;
21636;SDS011;10980;49.596;6.142;2022-08-19T05:59:38;26.42;;;15.35;;
21636;SDS011;10980;49.596;6.142;2022-08-19T06:03:00;25.73;;;15.07;;
21636;SDS011;10980;49.596;6.142;2022-08-19T06:06:33;22.52;;;14.98;;
21636;SDS011;10980;49.596;6.142;2022-08-19T06:09:56;28.02;;;16.15;;
21636;SDS011;10980;49.596;6.142;2022-08-19T06:13:21;24.63;;;16.23;;
21636;SDS011;10980;49.596;6.142;2022-08-19T06:16:45;26.35;;;16.27;;
21636;SDS011;10980;49.596;6.142;2022-08-19T06:20:08;27.23;;;17.05;;
21636;SDS011;10980;49.596;6.142;2022-08-19T06:23:34;22.02;;;13.25;;
21636;SDS011;10980;49.596;6.142;2022-08-19T06:26:57;18.77;;;11.82;;
21636;SDS011;10980;49.596;6.142;2022-08-19T06:30:22;21.05;;;13.05;;
21636;SDS011;10980;49.596;6.142;2022-08-19T06:33:44;23.58;;;12.90;;
21636;SDS011;10980;49.596;6.142;2022-08-19T06:37:06;17.50;;;11.68;;
21636;SDS011;10980;49.596;6.142;2022-08-19T06:40:27;16.50;;;11.80;;
21636;SDS011;10980;49.596;6.142;2022-08-19T06:43:49;19.90;;;13.10;;
21636;SDS011;10980;49.596;6.142;2022-08-19T06:47:17;19.05;;;13.13;;
21636;SDS011;10980;49.596;6.142;2022-08-19T06:50:48;17.73;;;12.52;;
21636;SDS011;10980;49.596;6.142;2022-08-19T06:54:13;19.00;;;13.68;;
21636;SDS011;10980;49.596;6.142;2022-08-19T06:57:39;21.77;;;14.45;;
21636;SDS011;10980;49.596;6.142;2022-08-19T07:01:02;20.67;;;14.15;;
21636;SDS011;10980;49.596;6.142;2022-08-19T07:04:29;18.08;;;14.05;;
21636;SDS011;10980;49.596;6.142;2022-08-19T07:07:55;27.50;;;16.55;;
21636;SDS011;10980;49.596;6.142;2022-08-19T07:11:25;24.55;;;16.05;;
21636;SDS011;10980;49.596;6.142;2022-08-19T07:14:49;27.58;;;16.35;;
21636;SDS011;10980;49.596;6.142;2022-08-19T07:18:11;24.88;;;16.48;;
21636;SDS011;10980;49.596;6.142;2022-08-19T07:21:33;29.38;;;20.40;;
21636;SDS011;10980;49.596;6.142;2022-08-19T07:24:57;32.67;;;21.73;;
21636;SDS011;10980;49.596;6.142;2022-08-19T07:28:19;31.60;;;20.00;;
21636;SDS011;10980;49.596;6.142;2022-08-19T07:31:45;31.08;;;21.23;;
21636;SDS011;10980;49.596;6.142;2022-08-19T07:35:07;32.45;;;20.33;;
21636;SDS011;10980;49.596;6.142;2022-08-19T07:38:31;28.40;;;21.20;;
21636;SDS011;10980;49.596;6.142;2022-08-19T07:41:53;31.73;;;21.10;;
21636;SDS011;10980;49.596;6.142;2022-08-19T07:45:16;32.45;;;21.48;;
21636;SDS011;10980;49.596;6.142;2022-08-19T07:48:38;29.00;;;21.20;;
21636;SDS011;10980;49.596;6.142;2022-08-19T07:52:04;29.95;;;19.80;;
21636;SDS011;10980;49.596;6.142;2022-08-19T07:55:27;36.25;;;22.15;;
21636;SDS011;10980;49.596;6.142;2022-08-19T07:59:03;33.42;;;22.00;;
21636;SDS011;10980;49.596;6.142;2022-08-19T08:02:26;28.95;;;20.83;;
21636;SDS011;10980;49.596;6.142;2022-08-19T08:05:47;31.50;;;20.55;;
21636;SDS011;10980;49.596;6.142;2022-08-19T08:09:30;29.08;;;20.60;;
21636;SDS011;10980;49.596;6.142;2022-08-19T08:12:55;24.42;;;17.95;;
21636;SDS011;10980;49.596;6.142;2022-08-19T08:16:34;33.20;;;20.92;;
21636;SDS011;10980;49.596;6.142;2022-08-19T08:20:07;32.70;;;23.08;;
21636;SDS011;10980;49.596;6.142;2022-08-19T08:23:29;32.13;;;21.90;;
21636;SDS011;10980;49.596;6.142;2022-08-19T08:26:52;42.13;;;20.10;;
21636;SDS011;10980;49.596;6.142;2022-08-19T08:30:22;29.95;;;18.80;;
21636;SDS011;10980;49.596;6.142;2022-08-19T08:33:45;27.45;;;20.90;;
21636;SDS011;10980;49.596;6.142;2022-08-19T08:37:08;28.67;;;20.65;;
21636;SDS011;10980;49.596;6.142;2022-08-19T08:40:37;27.42;;;18.33;;
21636;SDS011;10980;49.596;6.142;2022-08-19T08:44:05;24.50;;;17.20;;
21636;SDS011;10980;49.596;6.142;2022-08-19T08:47:35;25.65;;;18.52;;
21636;SDS011;10980;49.596;6.142;2022-08-19T08:51:03;24.40;;;17.38;;
21636;SDS011;10980;49.596;6.142;2022-08-19T08:54:39;33.92;;;17.60;;
21636;SDS011;10980;49.596;6.142;2022-08-19T08:58:26;23.15;;;16.73;;
21636;SDS011;10980;49.596;6.142;2022-08-19T09:01:52;26.27;;;15.75;;
21636;SDS011;10980;49.596;6.142;2022-08-19T09:05:14;26.38;;;16.75;;
21636;SDS011;10980;49.596;6.142;2022-08-19T09:08:47;23.25;;;15.13;;
21636;SDS011;10980;49.596;6.142;2022-08-19T09:19:29;20.25;;;14.65;;
21636;SDS011;10980;49.596;6.142;2022-08-19T09:22:53;22.88;;;13.55;;
21636;SDS011;10980;49.596;6.142;2022-08-19T09:26:15;19.90;;;13.10;;
21636;SDS011;10980;49.596;6.142;2022-08-19T09:29:42;21.67;;;13.90;;
21636;SDS011;10980;49.596;6.142;2022-08-19T09:33:04;24.58;;;16.50;;
21636;SDS011;10980;49.596;6.142;2022-08-19T09:36:27;21.67;;;15.95;;
21636;SDS011;10980;49.596;6.142;2022-08-19T09:39:55;19.05;;;13.27;;
21636;SDS011;10980;49.596;6.142;2022-08-19T09:43:17;17.58;;;13.38;;
21636;SDS011;10980;49.596;6.142;2022-08-19T09:46:53;18.50;;;12.35;;
21636;SDS011;10980;49.596;6.142;2022-08-19T09:50:15;15.43;;;11.45;;
21636;SDS011;10980;49.596;6.142;2022-08-19T09:53:39;18.17;;;12.13;;
21636;SDS011;10980;49.596;6.142;2022-08-19T09:57:01;16.00;;;11.38;;
21636;SDS011;10980;49.596;6.142;2022-08-19T10:00:27;15.32;;;11.85;;
21636;SDS011;10980;49.596;6.142;2022-08-19T10:03:52;20.27;;;11.77;;
21636;SDS011;10980;49.596;6.142;2022-08-19T10:07:15;18.85;;;11.07;;
21636;SDS011;10980;49.596;6.142;2022-08-19T10:10:38;15.82;;;11.35;;
21636;SDS011;10980;49.596;6.142;2022-08-19T10:14:03;20.40;;;13.68;;
21636;SDS011;10980;49.596;6.142;2022-08-19T10:17:27;15.38;;;12.07;;
21636;SDS011;10980;49.596;6.142;2022-08-19T10:21:01;24.67;;;12.00;;
21636;SDS011;10980;49.596;6.142;2022-08-19T10:24:32;17.92;;;13.38;;
21636;SDS011;10980;49.596;6.142;2022-08-19T10:27:54;19.35;;;12.90;;
21636;SDS011;10980;49.596;6.142;2022-08-19T10:31:18;16.92;;;12.15;;
21636;SDS011;10980;49.596;6.142;2022-08-19T10:35:02;15.27;;;11.80;;
21636;SDS011;10980;49.596;6.142;2022-08-19T10:38:29;22.02;;;14.23;;
21636;SDS011;10980;49.596;6.142;2022-08-19T10:41:52;20.85;;;13.73;;
21636;SDS011;10980;49.596;6.142;2022-08-19T10:45:14;20.00;;;13.70;;
21636;SDS011;10980;49.596;6.142;2022-08-19T10:48:36;15.05;;;12.05;;
21636;SDS011;10980;49.596;6.142;2022-08-19T10:51:59;16.67;;;11.50;;
21636;SDS011;10980;49.596;6.142;2022-08-19T10:55:44;16.45;;;9.63;;
21636;SDS011;10980;49.596;6.142;2022-08-19T10:59:27;16.40;;;10.32;;
21636;SDS011;10980;49.596;6.142;2022-08-19T11:02:56;11.98;;;9.35;;
21636;SDS011;10980;49.596;6.142;2022-08-19T11:06:18;14.20;;;9.30;;
21636;SDS011;10980;49.596;6.142;2022-08-19T11:09:41;10.10;;;7.35;;
21636;SDS011;10980;49.596;6.142;2022-08-19T11:13:03;13.90;;;8.13;;
21636;SDS011;10980;49.596;6.142;2022-08-19T11:16:26;12.98;;;7.97;;
21636;SDS011;10980;49.596;6.142;2022-08-19T11:19:51;13.75;;;8.40;;
21636;SDS011;10980;49.596;6.142;2022-08-19T11:23:12;8.55;;;6.90;;
21636;SDS011;10980;49.596;6.142;2022-08-19T11:26:35;15.68;;;6.97;;
21636;SDS011;10980;49.596;6.142;2022-08-19T11:29:58;6.70;;;5.40;;
21636;SDS011;10980;49.596;6.142;2022-08-19T11:33:21;9.40;;;6.00;;
21636;SDS011;10980;49.596;6.142;2022-08-19T11:36:43;7.88;;;5.63;;
21636;SDS011;10980;49.596;6.142;2022-08-19T11:40:08;8.75;;;5.18;;
21636;SDS011;10980;49.596;6.142;2022-08-19T11:43:31;8.55;;;5.13;;
21636;SDS011;10980;49.596;6.142;2022-08-19T11:46:57;9.88;;;6.03;;
21636;SDS011;10980;49.596;6.142;2022-08-19T11:50:29;8.45;;;6.18;;
21636;SDS011;10980;49.596;6.142;2022-08-19T11:53:52;8.05;;;3.97;;
21636;SDS011;10980;49.596;6.142;2022-08-19T11:57:15;5.03;;;3.67;;
21636;SDS011;10980;49.596;6.142;2022-08-19T12:00:38;6.95;;;3.35;;
21636;SDS011;10980;49.596;6.142;2022-08-19T12:04:03;4.32;;;3.10;;
21636;SDS011;10980;49.596;6.142;2022-08-19T12:07:26;9.63;;;5.32;;
21636;SDS011;10980;49.596;6.142;2022-08-19T12:10:48;12.23;;;6.63;;
21636;SDS011;10980;49.596;6.142;2022-08-19T12:14:10;7.70;;;5.32;;
21636;SDS011;10980;49.596;6.142;2022-08-19T12:17:35;12.13;;;6.20;;
21636;SDS011;10980;49.596;6.142;2022-08-19T12:20:57;17.48;;;8.10;;
21636;SDS011;10980;49.596;6.142;2022-08-19T12:24:19;15.45;;;7.95;;
21636;SDS011;10980;49.596;6.142;2022-08-19T12:27:44;12.75;;;8.52;;
21636;SDS011;10980;49.596;6.142;2022-08-19T12:31:17;12.85;;;8.98;;
21636;SDS011;10980;49.596;6.142;2022-08-19T12:34:40;15.70;;;8.43;;
21636;SDS011;10980;49.596;6.142;2022-08-19T12:38:02;13.65;;;9.77;;
21636;SDS011;10980;49.596;6.142;2022-08-19T12:41:24;13.77;;;7.85;;
21636;SDS011;10980;49.596;6.142;2022-08-19T12:44:46;13.77;;;8.50;;
21636;SDS011;10980;49.596;6.142;2022-08-19T12:48:08;14.52;;;7.95;;
21636;SDS011;10980;49.596;6.142;2022-08-19T12:51:50;11.52;;;7.63;;
21636;SDS011;10980;49.596;6.142;2022-08-19T12:55:13;9.20;;;6.40;;
21636;SDS011;10980;49.596;6.142;2022-08-19T12:58:35;9.23;;;5.43;;
21636;SDS011;10980;49.596;6.142;2022-08-19T13:01:57;8.43;;;5.53;;
21636;SDS011;10980;49.596;6.142;2022-08-19T13:05:22;10.00;;;5.88;;
21636;SDS011;10980;49.596;6.142;2022-08-19T13:08:45;6.97;;;4.93;;
21636;SDS011;10980;49.596;6.142;2022-08-19T13:12:07;9.27;;;5.60;;
21636;SDS011;10980;49.596;6.142;2022-08-19T13:15:34;8.57;;;4.47;;
21636;SDS011;10980;49.596;6.142;2022-08-19T13:18:58;7.70;;;5.68;;
21636;SDS011;10980;49.596;6.142;2022-08-19T13:22:19;7.55;;;4.85;;
21636;SDS011;10980;49.596;6.142;2022-08-19T13:25:41;7.18;;;4.65;;
21636;SDS011;10980;49.596;6.142;2022-08-19T13:29:08;6.05;;;4.00;;
21636;SDS011;10980;49.596;6.142;2022-08-19T13:32:49;7.47;;;3.67;;
21636;SDS011;10980;49.596;6.142;2022-08-19T13:36:29;4.95;;;4.10;;
21636;SDS011;10980;49.596;6.142;2022-08-19T13:39:50;4.47;;;2.92;;
21636;SDS011;10980;49.596;6.142;2022-08-19T13:43:13;4.93;;;3.67;;
21636;SDS011;10980;49.596;6.142;2022-08-19T13:46:44;3.60;;;2.83;;
21636;SDS011;10980;49.596;6.142;2022-08-19T13:50:06;4.88;;;2.00;;
21636;SDS011;10980;49.596;6.142;2022-08-19T13:53:29;6.65;;;2.15;;
21636;SDS011;10980;49.596;6.142;2022-08-19T13:56:52;1.98;;;1.20;;
21636;SDS011;10980;49.596;6.142;2022-08-19T14:00:15;5.13;;;1.30;;
21636;SDS011;10980;49.596;6.142;2022-08-19T14:03:39;2.50;;;1.33;;
21636;SDS011;10980;49.596;6.142;2022-08-19T14:07:01;2.33;;;1.52;;
21636;SDS011;10980;49.596;6.142;2022-08-19T14:10:22;3.28;;;1.88;;
21636;SDS011;10980;49.596;6.142;2022-08-19T14:13:45;6.63;;;1.92;;
21636;SDS011;10980;49.596;6.142;2022-08-19T14:17:07;1.80;;;1.40;;
21636;SDS011;10980;49.596;6.142;2022-08-19T14:20:33;2.83;;;2.30;;
21636;SDS011;10980;49.596;6.142;2022-08-19T14:23:56;4.15;;;2.65;;
21636;SDS011;10980;49.596;6.142;2022-08-19T14:27:17;4.28;;;2.72;;
21636;SDS011;10980;49.596;6.142;2022-08-19T14:30:39;2.70;;;2.10;;
21636;SDS011;10980;49.596;6.142;2022-08-19T14:34:01;4.28;;;1.90;;
21636;SDS011;10980;49.596;6.142;2022-08-19T14:37:23;6.20;;;1.80;;
21636;SDS011;10980;49.596;6.142;2022-08-19T14:40:45;3.05;;;1.40;;
21636;SDS011;10980;49.596;6.142;2022-08-19T14:44:07;1.73;;;1.27;;
21636;SDS011;10980;49.596;6.142;2022-08-19T14:47:31;2.28;;;1.13;;
21636;SDS011;10980;49.596;6.142;2022-08-19T14:50:53;5.35;;;1.08;;
21636;SDS011;10980;49.596;6.142;2022-08-19T14:54:14;0.70;;;0.50;;
21636;SDS011;10980;49.596;6.142;2022-08-19T14:57:36;1.10;;;0.85;;
21636;SDS011;10980;49.596;6.142;2022-08-19T15:00:58;2.53;;;0.55;;
21636;SDS011;10980;49.596;6.142;2022-08-19T15:04:20;1.10;;;0.60;;
21636;SDS011;10980;49.596;6.142;2022-08-19T15:07:43;4.95;;;0.70;;
21636;SDS011;10980;49.596;6.142;2022-08-19T15:11:08;1.08;;;0.70;;
21636;SDS011;10980;49.596;6.142;2022-08-19T15:14:35;7.53;;;1.15;;
21636;SDS011;10980;49.596;6.142;2022-08-19T15:17:58;1.98;;;0.93;;
21636;SDS011;10980;49.596;6.142;2022-08-19T15:21:23;1.92;;;0.75;;
21636;SDS011;10980;49.596;6.142;2022-08-19T15:24:47;1.65;;;0.77;;
21636;SDS011;10980;49.596;6.142;2022-08-19T15:28:10;0.95;;;0.60;;
21636;SDS011;10980;49.596;6.142;2022-08-19T15:31:32;3.85;;;0.60;;
21636;SDS011;10980;49.596;6.142;2022-08-19T15:34:58;1.80;;;0.93;;
21636;SDS011;10980;49.596;6.142;2022-08-19T15:38:20;3.50;;;1.30;;
21636;SDS011;10980;49.596;6.142;2022-08-19T15:41:42;1.33;;;0.75;;
21636;SDS011;10980;49.596;6.142;2022-08-19T15:45:05;1.95;;;0.60;;
21636;SDS011;10980;49.596;6.142;2022-08-19T15:48:28;1.27;;;0.70;;
21636;SDS011;10980;49.596;6.142;2022-08-19T15:51:50;1.08;;;0.60;;
21636;SDS011;10980;49.596;6.142;2022-08-19T15:55:18;1.02;;;0.60;;
21636;SDS011;10980;49.596;6.142;2022-08-19T15:58:54;0.82;;;0.50;;
21636;SDS011;10980;49.596;6.142;2022-08-19T16:02:35;2.58;;;0.50;;
21636;SDS011;10980;49.596;6.142;2022-08-19T16:06:15;1.15;;;0.50;;
21636;SDS011;10980;49.596;6.142;2022-08-19T16:09:46;1.80;;;0.32;;
21636;SDS011;10980;49.596;6.142;2022-08-19T16:13:08;0.85;;;0.45;;
21636;SDS011;10980;49.596;6.142;2022-08-19T16:16:31;4.10;;;0.60;;
21636;SDS011;10980;49.596;6.142;2022-08-19T16:19:54;3.72;;;0.80;;
21636;SDS011;10980;49.596;6.142;2022-08-19T16:23:16;1.70;;;0.70;;
21636;SDS011;10980;49.596;6.142;2022-08-19T16:26:39;1.15;;;0.70;;
21636;SDS011;10980;49.596;6.142;2022-08-19T16:30:02;0.73;;;0.40;;
21636;SDS011;10980;49.596;6.142;2022-08-19T16:33:25;2.67;;;0.50;;
21636;SDS011;10980;49.596;6.142;2022-08-19T16:36:46;0.80;;;0.40;;
21636;SDS011;10980;49.596;6.142;2022-08-19T16:40:09;1.35;;;0.60;;
21636;SDS011;10980;49.596;6.142;2022-08-19T16:43:31;0.47;;;0.35;;
21636;SDS011;10980;49.596;6.142;2022-08-19T16:46:53;2.83;;;0.70;;
21636;SDS011;10980;49.596;6.142;2022-08-19T16:50:19;1.35;;;0.40;;
21636;SDS011;10980;49.596;6.142;2022-08-19T16:53:53;1.10;;;0.50;;
21636;SDS011;10980;49.596;6.142;2022-08-19T16:57:15;0.77;;;0.50;;
21636;SDS011;10980;49.596;6.142;2022-08-19T17:00:37;0.63;;;0.40;;
21636;SDS011;10980;49.596;6.142;2022-08-19T17:03:59;3.25;;;0.85;;
21636;SDS011;10980;49.596;6.142;2022-08-19T17:07:21;0.85;;;0.60;;
21636;SDS011;10980;49.596;6.142;2022-08-19T17:10:43;1.10;;;0.43;;
21636;SDS011;10980;49.596;6.142;2022-08-19T17:14:25;1.10;;;0.55;;
21636;SDS011;10980;49.596;6.142;2022-08-19T17:17:47;1.42;;;0.55;;
21636;SDS011;10980;49.596;6.142;2022-08-19T17:21:09;1.20;;;0.70;;
21636;SDS011;10980;49.596;6.142;2022-08-19T17:24:32;3.40;;;0.60;;
21636;SDS011;10980;49.596;6.142;2022-08-19T17:27:54;1.20;;;0.50;;
21636;SDS011;10980;49.596;6.142;2022-08-19T17:31:17;0.93;;;0.50;;
21636;SDS011;10980;49.596;6.142;2022-08-19T17:34:41;2.47;;;0.75;;
21636;SDS011;10980;49.596;6.142;2022-08-19T17:38:04;2.03;;;0.98;;
21636;SDS011;10980;49.596;6.142;2022-08-19T17:41:30;3.90;;;0.70;;
21636;SDS011;10980;49.596;6.142;2022-08-19T17:44:54;1.42;;;0.90;;
21636;SDS011;10980;49.596;6.142;2022-08-19T17:48:19;4.85;;;0.80;;
21636;SDS011;10980;49.596;6.142;2022-08-19T17:51:42;7.35;;;0.80;;
21636;SDS011;10980;49.596;6.142;2022-08-19T17:55:06;1.70;;;0.98;;
21636;SDS011;10980;49.596;6.142;2022-08-19T17:58:28;2.10;;;0.82;;
21636;SDS011;10980;49.596;6.142;2022-08-19T18:01:49;1.65;;;1.00;;
21636;SDS011;10980;49.596;6.142;2022-08-19T18:05:15;1.45;;;1.00;;
21636;SDS011;10980;49.596;6.142;2022-08-19T18:08:42;1.42;;;0.80;;
21636;SDS011;10980;49.596;6.142;2022-08-19T18:12:10;2.17;;;1.02;;
21636;SDS011;10980;49.596;6.142;2022-08-19T18:15:33;2.88;;;1.35;;
21636;SDS011;10980;49.596;6.142;2022-08-19T18:18:55;3.83;;;0.82;;
21636;SDS011;10980;49.596;6.142;2022-08-19T18:25:56;2.45;;;1.23;;
21636;SDS011;10980;49.596;6.142;2022-08-19T18:29:18;1.33;;;1.23;;
21636;SDS011;10980;49.596;6.142;2022-08-19T18:32:40;5.00;;;1.10;;
21636;SDS011;10980;49.596;6.142;2022-08-19T18:36:04;1.95;;;0.93;;
21636;SDS011;10980;49.596;6.142;2022-08-19T18:39:28;5.65;;;1.30;;
21636;SDS011;10980;49.596;6.142;2022-08-19T18:43:08;2.67;;;1.00;;
21636;SDS011;10980;49.596;6.142;2022-08-19T18:46:37;2.20;;;1.00;;
21636;SDS011;10980;49.596;6.142;2022-08-19T18:50:18;2.75;;;1.17;;
21636;SDS011;10980;49.596;6.142;2022-08-19T18:53:39;2.00;;;1.20;;
21636;SDS011;10980;49.596;6.142;2022-08-19T18:57:02;4.10;;;1.20;;
21636;SDS011;10980;49.596;6.142;2022-08-19T19:00:25;1.60;;;0.88;;
21636;SDS011;10980;49.596;6.142;2022-08-19T19:03:48;3.30;;;1.10;;
21636;SDS011;10980;49.596;6.142;2022-08-19T19:07:13;1.48;;;1.05;;
21636;SDS011;10980;49.596;6.142;2022-08-19T19:10:34;1.73;;;1.13;;
21636;SDS011;10980;49.596;6.142;2022-08-19T19:13:56;3.40;;;1.65;;
21636;SDS011;10980;49.596;6.142;2022-08-19T19:17:22;2.33;;;1.38;;
21636;SDS011;10980;49.596;6.142;2022-08-19T19:20:47;2.65;;;1.42;;
21636;SDS011;10980;49.596;6.142;2022-08-19T19:24:09;5.97;;;1.20;;
21636;SDS011;10980;49.596;6.142;2022-08-19T19:27:34;1.60;;;1.10;;
21636;SDS011;10980;49.596;6.142;2022-08-19T19:30:56;7.50;;;1.80;;
21636;SDS011;10980;49.596;6.142;2022-08-19T19:34:19;4.72;;;1.40;;
21636;SDS011;10980;49.596;6.142;2022-08-19T19:37:50;3.05;;;1.10;;
21636;SDS011;10980;49.596;6.142;2022-08-19T19:41:13;3.45;;;1.83;;
21636;SDS011;10980;49.596;6.142;2022-08-19T19:44:37;2.60;;;1.38;;
21636;SDS011;10980;49.596;6.142;2022-08-19T19:48:07;4.75;;;1.55;;
21636;SDS011;10980;49.596;6.142;2022-08-19T19:51:35;2.78;;;1.70;;
21636;SDS011;10980;49.596;6.142;2022-08-19T19:54:59;3.65;;;1.75;;
21636;SDS011;10980;49.596;6.142;2022-08-19T19:58:21;3.17;;;1.95;;
21636;SDS011;10980;49.596;6.142;2022-08-19T20:01:49;7.63;;;1.60;;
21636;SDS011;10980;49.596;6.142;2022-08-19T20:05:14;2.38;;;1.55;;
21636;SDS011;10980;49.596;6.142;2022-08-19T20:08:36;2.83;;;2.05;;
21636;SDS011;10980;49.596;6.142;2022-08-19T20:12:17;2.95;;;1.80;;
21636;SDS011;10980;49.596;6.142;2022-08-19T20:15:40;3.88;;;1.70;;
21636;SDS011;10980;49.596;6.142;2022-08-19T20:19:06;2.97;;;2.00;;
21636;SDS011;10980;49.596;6.142;2022-08-19T20:22:28;6.63;;;2.20;;
21636;SDS011;10980;49.596;6.142;2022-08-19T20:25:54;7.15;;;2.00;;